createdAt,value
2017-12-08T00:01:01.776Z,6.72
2017-12-08T00:02:10.315Z,6.75
2017-12-08T00:03:19.117Z,6.68
2017-12-08T00:04:27.652Z,6.75
2017-12-08T00:05:36.196Z,6.65
2017-12-08T00:06:45.259Z,6.62
2017-12-08T00:07:54.061Z,6.55
2017-12-08T00:09:02.865Z,6.6
2017-12-08T00:10:11.676Z,6.62
2017-12-08T00:11:20.749Z,6.6
2017-12-08T00:12:29.552Z,6.62
2017-12-08T00:13:38.353Z,6.54
2017-12-08T00:14:46.890Z,6.51
2017-12-08T00:15:55.963Z,6.54
2017-12-08T00:17:04.505Z,6.4
2017-12-08T00:18:13.578Z,6.4
2017-12-08T00:19:22.113Z,6.49
2017-12-08T00:20:31.185Z,6.47
2017-12-08T00:21:40.258Z,6.47
2017-12-08T00:22:48.797Z,6.4
2017-12-08T00:23:57.869Z,6.43
2017-12-08T00:25:06.677Z,6.4
2017-12-08T00:26:15.213Z,6.31
2017-12-08T00:27:24.018Z,6.34
2017-12-08T00:28:33.103Z,6.36
2017-12-08T00:29:41.644Z,6.34
2017-12-08T00:30:50.180Z,6.33
2017-12-08T00:31:59.248Z,6.31
2017-12-08T00:33:08.052Z,6.34
2017-12-08T00:34:17.134Z,6.4
2017-12-08T00:35:25.940Z,6.42
2017-12-08T00:36:34.476Z,6.37
2017-12-08T00:37:43.282Z,6.39
2017-12-08T00:38:51.820Z,6.37
2017-12-08T00:40:00.361Z,6.54
2017-12-08T00:41:09.167Z,6.51
2017-12-08T00:42:18.024Z,6.64
2017-12-08T00:43:26.833Z,6.62
2017-12-08T00:44:35.640Z,6.6
2017-12-08T00:45:44.442Z,6.62
2017-12-08T00:46:53.247Z,6.6
2017-12-08T00:48:02.049Z,6.6
2017-12-08T00:49:11.119Z,6.57
2017-12-08T00:50:19.660Z,6.54
2017-12-08T00:51:28.196Z,6.57
2017-12-08T00:52:36.997Z,6.52
2017-12-08T00:53:45.536Z,6.51
2017-12-08T00:54:54.077Z,6.4
2017-12-08T00:56:02.878Z,6.37
2017-12-08T00:57:11.416Z,6.37
2017-12-08T00:58:20.220Z,6.31
2017-12-08T00:59:28.758Z,6.36
2017-12-08T01:00:37.827Z,6.31
2017-12-08T01:01:46.629Z,6.21
2017-12-08T01:02:55.167Z,6.17
2017-12-08T01:04:03.974Z,6.18
2017-12-08T01:05:12.781Z,6.1
2017-12-08T01:06:21.851Z,6.13
2017-12-08T01:07:30.929Z,6.13
2017-12-08T01:09:11.801Z,6.13
2017-12-08T01:10:20.610Z,6.02
2017-12-08T01:11:29.413Z,6.02
2017-12-08T01:12:38.220Z,5.98
2017-12-08T01:13:47.024Z,5.98
2017-12-08T01:14:56.100Z,5.95
2017-12-08T01:16:05.168Z,5.92
2017-12-08T01:17:14.245Z,5.92
2017-12-08T01:18:22.787Z,5.99
2017-12-08T01:19:31.591Z,5.84
2017-12-08T01:20:40.398Z,5.92
2017-12-08T01:21:49.468Z,5.78
2017-12-08T01:22:58.287Z,5.87
2017-12-08T01:24:07.360Z,5.87
2017-12-08T01:25:16.702Z,5.87
2017-12-08T01:26:25.239Z,5.78
2017-12-08T01:27:33.776Z,5.82
2017-12-08T01:28:42.314Z,5.82
2017-12-08T01:29:51.114Z,5.81
2017-12-08T01:30:59.918Z,5.73
2017-12-08T01:32:08.725Z,5.81
2017-12-08T01:33:17.530Z,5.77
2017-12-08T01:34:26.659Z,5.77
2017-12-08T01:39:51.808Z,5.66
2017-12-08T01:41:00.620Z,5.72
2017-12-08T01:42:09.153Z,5.66
2017-12-08T01:43:17.684Z,5.64
2017-12-08T01:44:26.498Z,5.64
2017-12-08T01:45:35.021Z,5.63
2017-12-08T01:46:43.554Z,5.67
2017-12-08T01:47:52.626Z,5.62
2017-12-08T01:49:01.696Z,5.62
2017-12-08T01:50:10.766Z,5.6
2017-12-08T01:51:19.567Z,5.59
2017-12-08T01:52:28.642Z,5.49
2017-12-08T01:53:37.708Z,5.54
2017-12-08T01:54:46.514Z,5.51
2017-12-08T01:55:55.317Z,5.52
2017-12-08T01:57:04.115Z,5.52
2017-12-08T01:58:12.651Z,5.59
2017-12-08T01:59:21.455Z,5.62
2017-12-08T02:00:30.252Z,5.55
2017-12-08T02:01:38.785Z,5.57
2017-12-08T02:02:47.318Z,5.63
2017-12-08T02:03:56.118Z,5.59
2017-12-08T02:05:04.655Z,5.63
2017-12-08T02:06:13.187Z,5.62
2017-12-08T02:07:21.986Z,5.6
2017-12-08T02:08:30.788Z,5.63
2017-12-08T02:09:39.320Z,5.51
2017-12-08T02:10:48.105Z,5.62
2017-12-08T02:11:56.914Z,5.52
2017-12-08T02:13:05.984Z,5.48
2017-12-08T02:14:15.050Z,5.63
2017-12-08T02:15:24.390Z,5.6
2017-12-08T02:16:33.192Z,5.59
2017-12-08T02:17:42.259Z,5.48
2017-12-08T02:18:50.797Z,5.48
2017-12-08T02:19:59.603Z,5.48
2017-12-08T02:21:08.676Z,5.44
2017-12-08T02:22:17.745Z,5.37
2017-12-08T02:23:26.280Z,5.42
2017-12-08T02:24:35.077Z,5.37
2017-12-08T02:25:43.615Z,5.37
2017-12-08T02:26:52.149Z,5.45
2017-12-08T02:28:00.949Z,5.42
2017-12-08T02:29:09.846Z,5.34
2017-12-08T02:30:18.927Z,5.37
2017-12-08T02:31:27.732Z,5.42
2017-12-08T02:32:36.796Z,5.41
2017-12-08T02:33:46.137Z,5.45
2017-12-08T02:34:55.205Z,5.39
2017-12-08T02:36:04.004Z,5.37
2017-12-08T02:37:13.074Z,5.49
2017-12-08T02:38:22.136Z,5.48
2017-12-08T02:39:31.273Z,5.39
2017-12-08T02:40:40.073Z,5.37
2017-12-08T02:41:48.605Z,5.41
2017-12-08T02:42:57.137Z,5.42
2017-12-08T02:44:06.206Z,5.42
2017-12-08T02:45:15.153Z,5.41
2017-12-08T02:46:23.957Z,5.42
2017-12-08T02:47:32.756Z,5.42
2017-12-08T02:48:41.293Z,5.48
2017-12-08T02:49:50.098Z,5.55
2017-12-08T02:50:58.630Z,5.42
2017-12-08T02:52:07.429Z,5.49
2017-12-08T02:53:16.229Z,5.39
2017-12-08T02:54:24.765Z,5.39
2017-12-08T02:55:33.306Z,5.36
2017-12-08T02:56:41.836Z,5.37
2017-12-08T02:57:50.370Z,5.41
2017-12-08T02:58:59.176Z,5.49
2017-12-08T03:00:07.711Z,5.39
2017-12-08T03:01:16.510Z,5.37
2017-12-08T03:02:25.043Z,5.54
2017-12-08T03:03:33.844Z,5.52
2017-12-08T03:04:42.924Z,5.46
2017-12-08T03:05:51.726Z,5.49
2017-12-08T03:07:00.523Z,5.48
2017-12-08T03:08:09.057Z,5.48
2017-12-08T03:09:17.862Z,5.42
2017-12-08T03:10:26.665Z,5.48
2017-12-08T03:11:35.199Z,5.51
2017-12-08T03:12:44.003Z,5.55
2017-12-08T03:13:52.532Z,5.54
2017-12-08T03:15:01.332Z,5.39
2017-12-08T03:16:09.867Z,5.39
2017-12-08T03:17:18.934Z,5.42
2017-12-08T03:18:27.465Z,5.33
2017-12-08T03:19:36.530Z,5.21
2017-12-08T03:20:45.066Z,5.33
2017-12-08T03:21:53.867Z,5.21
2017-12-08T03:23:02.671Z,5.31
2017-12-08T03:24:11.471Z,5.28
2017-12-08T03:25:20.009Z,5.34
2017-12-08T03:26:28.541Z,5.34
2017-12-08T03:27:37.340Z,5.33
2017-12-08T03:28:46.138Z,5.28
2017-12-08T03:29:54.669Z,5.34
2017-12-08T03:31:03.491Z,5.3
2017-12-08T03:32:12.547Z,5.3
2017-12-08T03:33:21.077Z,5.36
2017-12-08T03:34:29.876Z,5.36
2017-12-08T03:35:38.674Z,5.2
2017-12-08T03:36:47.472Z,5.23
2017-12-08T03:37:56.274Z,5.24
2017-12-08T03:39:05.076Z,5.23
2017-12-08T03:40:13.893Z,5.24
2017-12-08T03:41:22.425Z,5.3
2017-12-08T03:42:31.224Z,5.26
2017-12-08T03:43:39.755Z,5.18
2017-12-08T03:44:48.820Z,5.23
2017-12-08T03:45:57.359Z,5.24
2017-12-08T03:47:06.829Z,5.16
2017-12-08T03:48:15.899Z,5.15
2017-12-08T03:49:24.967Z,5.15
2017-12-08T03:50:34.303Z,5.2
2017-12-08T03:51:43.101Z,5.18
2017-12-08T03:52:52.164Z,5.18
2017-12-08T03:54:00.696Z,5.16
2017-12-08T03:55:09.494Z,5.06
2017-12-08T03:56:18.027Z,4.98
2017-12-08T03:57:26.827Z,5.02
2017-12-08T03:58:35.625Z,4.95
2017-12-08T03:59:44.157Z,5.03
2017-12-08T04:00:52.961Z,4.92
2017-12-08T04:02:01.494Z,5.05
2017-12-08T04:03:10.030Z,5.02
2017-12-08T04:04:18.828Z,4.9
2017-12-08T04:05:27.360Z,4.9
2017-12-08T04:06:36.426Z,4.88
2017-12-08T04:07:45.228Z,4.84
2017-12-08T04:08:54.293Z,4.78
2017-12-08T04:10:03.089Z,4.9
2017-12-08T04:11:12.153Z,4.84
2017-12-08T04:12:20.952Z,4.72
2017-12-08T04:13:29.486Z,4.68
2017-12-08T04:14:38.286Z,4.66
2017-12-08T04:15:47.085Z,4.66
2017-12-08T04:16:55.617Z,4.72
2017-12-08T04:18:04.147Z,4.74
2017-12-08T04:19:12.946Z,4.76
2017-12-08T04:20:21.478Z,4.71
2017-12-08T04:21:30.013Z,4.64
2017-12-08T04:22:38.817Z,4.65
2017-12-08T04:23:47.891Z,4.6
2017-12-08T04:24:56.695Z,4.54
2017-12-08T04:26:05.500Z,4.53
2017-12-08T04:27:14.031Z,4.53
2017-12-08T04:28:23.098Z,4.58
2017-12-08T04:29:31.633Z,4.51
2017-12-08T04:30:40.698Z,4.5
2017-12-08T04:31:49.231Z,4.46
2017-12-08T04:32:58.032Z,4.48
2017-12-08T04:34:07.099Z,4.47
2017-12-08T04:35:15.895Z,4.42
2017-12-08T04:36:24.695Z,4.38
2017-12-08T04:37:33.528Z,4.44
2017-12-08T04:38:42.864Z,4.33
2017-12-08T04:39:51.666Z,4.39
2017-12-08T04:41:00.464Z,4.38
2017-12-08T04:42:09.266Z,4.39
2017-12-08T04:43:18.070Z,4.33
2017-12-08T04:44:26.870Z,4.32
2017-12-08T04:45:35.665Z,4.3
2017-12-08T04:46:44.465Z,4.26
2017-12-08T04:47:53.529Z,4.26
2017-12-08T04:49:02.060Z,4.17
2017-12-08T04:50:10.859Z,4.28
2017-12-08T04:51:19.926Z,4.29
2017-12-08T04:52:28.727Z,4.22
2017-12-08T04:53:37.304Z,4.18
2017-12-08T04:54:45.794Z,4.21
2017-12-08T04:55:54.329Z,4.15
2017-12-08T04:57:03.665Z,4.11
2017-12-08T04:58:12.735Z,4.14
2017-12-08T04:59:21.532Z,4.11
2017-12-08T05:00:30.599Z,4.18
2017-12-08T05:01:39.397Z,4.12
2017-12-08T05:02:48.197Z,4.12
2017-12-08T05:03:56.729Z,4.14
2017-12-08T05:05:05.526Z,4.14
2017-12-08T05:06:14.054Z,4.21
2017-12-08T05:07:22.584Z,4.11
2017-12-08T05:08:31.650Z,4.14
2017-12-08T05:09:42.566Z,4.07
2017-12-08T05:10:51.636Z,4.02
2017-12-08T05:12:00.166Z,4.08
2017-12-08T05:13:08.973Z,4.1
2017-12-08T05:14:17.506Z,4.11
2017-12-08T05:15:26.307Z,4.07
2017-12-08T05:16:35.105Z,4.04
2017-12-08T05:17:44.706Z,4.04
2017-12-08T05:18:53.237Z,4.15
2017-12-08T05:20:02.034Z,4.1
2017-12-08T05:21:10.834Z,4.04
2017-12-08T05:22:20.164Z,4.08
2017-12-08T05:23:29.233Z,4
2017-12-08T05:24:38.034Z,3.96
2017-12-08T05:25:46.566Z,4.07
2017-12-08T05:26:55.377Z,4.04
2017-12-08T05:28:04.704Z,4.02
2017-12-08T05:29:14.054Z,4
2017-12-08T05:30:22.590Z,4
2017-12-08T05:31:31.386Z,4.02
2017-12-08T05:32:39.916Z,3.99
2017-12-08T05:33:48.450Z,3.93
2017-12-08T05:34:57.245Z,3.93
2017-12-08T05:36:06.041Z,3.96
2017-12-08T05:37:14.568Z,3.92
2017-12-08T05:38:23.364Z,3.96
2017-12-08T05:39:32.315Z,3.93
2017-12-08T05:40:41.386Z,3.93
2017-12-08T05:41:50.459Z,3.99
2017-12-08T05:42:59.262Z,3.89
2017-12-08T05:44:08.060Z,3.89
2017-12-08T05:45:16.860Z,3.81
2017-12-08T05:46:25.925Z,3.82
2017-12-08T05:47:34.989Z,3.82
2017-12-08T05:48:43.523Z,3.84
2017-12-08T05:49:52.062Z,3.81
2017-12-08T05:51:00.587Z,3.75
2017-12-08T05:52:09.119Z,3.71
2017-12-08T05:53:17.917Z,3.78
2017-12-08T05:54:26.713Z,3.71
2017-12-08T05:55:35.513Z,3.82
2017-12-08T05:56:44.313Z,3.75
2017-12-08T05:57:53.116Z,3.76
2017-12-08T05:59:01.914Z,3.72
2017-12-08T06:00:10.442Z,3.72
2017-12-08T06:01:18.972Z,3.72
2017-12-08T06:02:28.039Z,3.69
2017-12-08T06:03:36.569Z,3.72
2017-12-08T06:04:45.370Z,3.67
2017-12-08T06:05:54.176Z,3.67
2017-12-08T06:07:02.976Z,3.66
2017-12-08T06:08:12.043Z,3.67
2017-12-08T06:09:20.575Z,3.66
2017-12-08T06:10:29.369Z,3.71
2017-12-08T06:11:38.434Z,3.66
2017-12-08T06:12:47.232Z,3.57
2017-12-08T06:13:56.028Z,3.54
2017-12-08T06:15:04.834Z,3.54
2017-12-08T06:16:13.895Z,3.64
2017-12-08T06:17:22.767Z,3.54
2017-12-08T06:18:31.611Z,3.51
2017-12-08T06:19:40.145Z,3.71
2017-12-08T06:20:49.209Z,3.61
2017-12-08T06:21:58.007Z,3.69
2017-12-08T06:23:06.845Z,3.69
2017-12-08T06:24:15.872Z,3.72
2017-12-08T06:25:24.403Z,3.81
2017-12-08T06:26:32.932Z,3.78
2017-12-08T06:27:41.731Z,3.78
2017-12-08T06:28:50.532Z,3.74
2017-12-08T06:29:59.603Z,3.66
2017-12-08T06:31:08.937Z,3.71
2017-12-08T06:32:18.391Z,3.71
2017-12-08T06:33:26.923Z,3.72
2017-12-08T06:34:35.721Z,3.64
2017-12-08T06:35:44.791Z,3.67
2017-12-08T06:36:53.594Z,3.75
2017-12-08T06:38:02.127Z,3.67
2017-12-08T06:39:10.929Z,3.67
2017-12-08T06:40:19.726Z,3.67
2017-12-08T06:41:28.524Z,3.74
2017-12-08T06:42:37.321Z,3.67
2017-12-08T06:43:46.122Z,3.69
2017-12-08T06:44:54.655Z,3.64
2017-12-08T06:46:03.989Z,3.67
2017-12-08T06:47:13.055Z,3.64
2017-12-08T06:48:21.586Z,3.66
2017-12-08T06:49:30.654Z,3.66
2017-12-08T06:50:40.220Z,3.51
2017-12-08T06:51:48.752Z,3.57
2017-12-08T06:52:57.549Z,3.58
2017-12-08T06:54:06.619Z,3.57
2017-12-08T06:55:15.691Z,3.49
2017-12-08T06:56:24.541Z,3.58
2017-12-08T06:57:33.676Z,3.56
2017-12-08T06:58:43.006Z,3.53
2017-12-08T06:59:51.805Z,3.54
2017-12-08T07:01:00.336Z,3.45
2017-12-08T07:02:09.461Z,3.46
2017-12-08T07:03:18.270Z,3.48
2017-12-08T07:04:27.068Z,3.48
2017-12-08T07:05:35.867Z,3.42
2017-12-08T07:06:44.399Z,3.43
2017-12-08T07:07:53.202Z,3.46
2017-12-08T07:09:02.265Z,3.4
2017-12-08T07:10:10.799Z,3.32
2017-12-08T07:11:19.861Z,3.4
2017-12-08T07:12:28.666Z,3.35
2017-12-08T07:13:37.465Z,3.37
2017-12-08T07:14:46.532Z,3.3
2017-12-08T07:15:55.065Z,3.3
2017-12-08T07:17:03.595Z,3.34
2017-12-08T07:18:12.662Z,3.29
2017-12-08T07:19:21.462Z,3.27
2017-12-08T07:20:30.259Z,3.3
2017-12-08T07:21:38.788Z,3.27
2017-12-08T07:22:47.921Z,3.26
2017-12-08T07:23:57.516Z,3.23
2017-12-08T07:25:06.448Z,3.27
2017-12-08T07:26:15.249Z,3.24
2017-12-08T07:27:24.403Z,3.23
2017-12-08T07:28:33.200Z,3.34
2017-12-08T07:29:41.995Z,3.32
2017-12-08T07:30:52.425Z,3.24
2017-12-08T07:32:01.219Z,3.29
2017-12-08T07:33:10.286Z,3.29
2017-12-08T07:34:19.083Z,3.17
2017-12-08T07:35:27.885Z,3.27
2017-12-08T07:36:36.427Z,3.27
2017-12-08T07:37:45.504Z,3.32
2017-12-08T07:38:54.570Z,3.39
2017-12-08T07:40:03.563Z,3.42
2017-12-08T07:41:12.384Z,3.43
2017-12-08T07:42:20.922Z,3.42
2017-12-08T07:43:29.988Z,3.4
2017-12-08T07:44:38.807Z,3.42
2017-12-08T07:45:47.697Z,3.45
2017-12-08T07:46:56.502Z,3.45
2017-12-08T07:48:05.842Z,3.43
2017-12-08T07:49:14.375Z,3.48
2017-12-08T07:50:23.439Z,3.42
2017-12-08T07:51:32.257Z,3.56
2017-12-08T07:52:40.781Z,3.61
2017-12-08T07:53:50.118Z,3.67
2017-12-08T07:54:58.914Z,3.61
2017-12-08T07:56:07.454Z,3.72
2017-12-08T07:57:16.774Z,3.71
2017-12-08T07:58:26.988Z,3.84
2017-12-08T07:59:36.804Z,3.84
2017-12-08T08:00:45.613Z,3.84
2017-12-08T08:01:54.948Z,3.89
2017-12-08T08:03:03.757Z,3.9
2017-12-08T08:04:12.823Z,3.86
2017-12-08T08:05:21.780Z,3.82
2017-12-08T08:06:30.911Z,3.84
2017-12-08T08:07:39.710Z,3.81
2017-12-08T08:08:48.510Z,3.85
2017-12-08T08:09:57.309Z,3.96
2017-12-08T08:11:05.848Z,3.99
2017-12-08T08:12:15.187Z,3.99
2017-12-08T08:13:23.925Z,3.99
2017-12-08T08:14:32.763Z,4.07
2017-12-08T08:15:41.872Z,4.02
2017-12-08T08:16:50.673Z,3.96
2017-12-08T08:17:59.207Z,4.03
2017-12-08T08:19:07.740Z,4.04
2017-12-08T08:20:16.544Z,4.03
2017-12-08T08:21:25.617Z,4.15
2017-12-08T08:22:34.689Z,4.15
2017-12-08T08:23:43.223Z,4.2
2017-12-08T08:24:52.020Z,4.17
2017-12-08T08:26:00.836Z,4.15
2017-12-08T08:27:09.376Z,4.26
2017-12-08T08:28:18.438Z,4.29
2017-12-08T08:29:26.975Z,4.32
2017-12-08T08:30:35.780Z,4.32
2017-12-08T08:31:44.318Z,4.32
2017-12-08T08:32:53.163Z,4.29
2017-12-08T08:34:01.701Z,4.29
2017-12-08T08:35:11.656Z,4.28
2017-12-08T08:36:20.491Z,4.18
2017-12-08T08:37:29.305Z,4.24
2017-12-08T08:38:38.383Z,4.22
2017-12-08T08:39:47.194Z,4.17
2017-12-08T08:40:55.736Z,4.17
2017-12-08T08:42:04.273Z,4.2
2017-12-08T08:43:12.805Z,4.12
2017-12-08T08:44:22.196Z,4.12
2017-12-08T08:45:30.998Z,4.17
2017-12-08T08:46:39.539Z,4.11
2017-12-08T08:47:48.620Z,4.1
2017-12-08T08:48:57.435Z,4.1
2017-12-08T08:50:06.521Z,4.15
2017-12-08T08:51:15.335Z,4.07
2017-12-08T08:52:23.868Z,3.99
2017-12-08T08:53:32.400Z,4.03
2017-12-08T08:54:41.472Z,4
2017-12-08T08:55:50.005Z,3.96
2017-12-08T08:56:59.096Z,4
2017-12-08T08:58:07.893Z,4.02
2017-12-08T08:59:16.445Z,3.99
2017-12-08T09:00:25.817Z,3.99
2017-12-08T09:01:35.148Z,3.96
2017-12-08T09:02:43.682Z,3.93
2017-12-08T09:03:52.480Z,4.03
2017-12-08T09:05:01.017Z,3.94
2017-12-08T09:06:10.450Z,4.04
2017-12-08T09:07:19.781Z,3.96
2017-12-08T09:08:28.583Z,4.02
2017-12-08T09:09:37.722Z,3.94
2017-12-08T09:10:46.260Z,4.03
2017-12-08T09:11:54.793Z,4.03
2017-12-08T09:13:04.150Z,4.03
2017-12-08T09:14:12.682Z,4.04
2017-12-08T09:15:22.020Z,3.96
2017-12-08T09:16:30.838Z,4.04
2017-12-08T09:17:39.376Z,4.14
2017-12-08T09:18:47.915Z,4.12
2017-12-08T09:19:56.717Z,4.12
2017-12-08T09:21:05.515Z,4.1
2017-12-08T09:22:14.322Z,4.17
2017-12-08T09:23:23.652Z,4.14
2017-12-08T09:24:32.450Z,4.12
2017-12-08T09:25:41.560Z,4.15
2017-12-08T09:26:50.908Z,4.17
2017-12-08T09:27:59.723Z,4.15
2017-12-08T09:29:08.522Z,4.26
2017-12-08T09:30:17.327Z,4.18
2017-12-08T09:31:26.125Z,4.21
2017-12-08T09:32:35.617Z,4.17
2017-12-08T09:33:44.421Z,4.2
2017-12-08T09:34:53.491Z,4.28
2017-12-08T09:36:02.022Z,4.28
2017-12-08T09:37:10.593Z,4.29
2017-12-08T09:38:19.126Z,4.32
2017-12-08T09:39:27.656Z,4.36
2017-12-08T09:40:36.723Z,4.35
2017-12-08T09:41:45.260Z,4.39
2017-12-08T09:42:54.325Z,4.42
2017-12-08T09:44:02.863Z,4.39
2017-12-08T09:45:11.762Z,4.47
2017-12-08T09:46:20.497Z,4.5
2017-12-08T09:47:29.031Z,4.58
2017-12-08T09:48:37.567Z,4.51
2017-12-08T09:49:46.365Z,4.53
2017-12-08T09:50:55.169Z,4.53
2017-12-08T09:52:04.244Z,4.53
2017-12-08T09:53:12.781Z,4.53
2017-12-08T09:54:21.644Z,4.56
2017-12-08T09:55:30.456Z,4.51
2017-12-08T09:56:39.255Z,4.51
2017-12-08T09:57:48.333Z,4.61
2017-12-08T09:58:57.453Z,4.54
2017-12-08T10:00:06.494Z,4.57
2017-12-08T10:01:15.027Z,4.51
2017-12-08T10:02:24.367Z,4.46
2017-12-08T10:03:32.900Z,4.51
2017-12-08T10:04:41.773Z,4.48
2017-12-08T10:05:50.884Z,4.5
2017-12-08T10:06:59.683Z,4.48
2017-12-08T10:08:10.115Z,4.46
2017-12-08T10:09:18.650Z,4.46
2017-12-08T10:10:27.451Z,4.39
2017-12-08T10:11:36.288Z,4.4
2017-12-08T10:12:45.384Z,4.47
2017-12-08T10:13:54.460Z,4.47
2017-12-08T10:15:03.791Z,4.44
2017-12-08T10:16:12.590Z,4.39
2017-12-08T10:17:21.128Z,4.42
2017-12-08T10:18:29.953Z,4.38
2017-12-08T10:19:38.488Z,4.39
2017-12-08T10:20:47.285Z,4.39
2017-12-08T10:21:55.825Z,4.35
2017-12-08T10:23:04.625Z,4.42
2017-12-08T10:24:13.423Z,4.39
2017-12-08T10:25:22.487Z,4.3
2017-12-08T10:26:31.555Z,4.39
2017-12-08T10:27:40.360Z,4.28
2017-12-08T10:28:49.225Z,4.26
2017-12-08T10:29:58.367Z,4.32
2017-12-08T10:31:07.169Z,4.2
2017-12-08T10:32:15.971Z,4.29
2017-12-08T10:33:24.774Z,4.28
2017-12-08T10:34:33.308Z,4.3
2017-12-08T10:35:42.108Z,4.24
2017-12-08T10:36:50.648Z,4.3
2017-12-08T10:37:59.450Z,4.17
2017-12-08T10:39:08.798Z,4.32
2017-12-08T10:40:17.866Z,4.36
2017-12-08T10:41:26.662Z,4.4
2017-12-08T10:42:35.192Z,4.3
2017-12-08T10:43:43.996Z,4.3
2017-12-08T10:44:53.061Z,4.42
2017-12-08T10:46:01.907Z,4.38
2017-12-08T10:47:12.292Z,4.2
2017-12-08T10:48:21.364Z,4.21
2017-12-08T10:49:30.202Z,4.15
2017-12-08T10:50:39.020Z,4.2
2017-12-08T10:51:47.885Z,4.14
2017-12-08T10:52:56.415Z,4.11
2017-12-08T10:54:04.954Z,3.94
2017-12-08T10:55:13.493Z,3.97
2017-12-08T10:56:22.025Z,3.99
2017-12-08T10:57:30.564Z,3.92
2017-12-08T10:58:39.368Z,3.81
2017-12-08T10:59:48.173Z,3.89
2017-12-08T11:00:56.972Z,3.86
2017-12-08T11:02:05.772Z,3.84
2017-12-08T11:03:14.357Z,3.82
2017-12-08T11:04:22.891Z,3.79
2017-12-08T11:05:31.423Z,3.78
2017-12-08T11:06:40.223Z,3.76
2017-12-08T11:07:48.756Z,3.76
2017-12-08T11:08:57.289Z,3.76
2017-12-08T11:10:05.825Z,3.84
2017-12-08T11:11:14.623Z,3.81
2017-12-08T11:12:23.156Z,3.85
2017-12-08T11:13:31.692Z,3.82
2017-12-08T11:14:40.492Z,3.86
2017-12-08T11:15:49.559Z,3.75
2017-12-08T11:16:58.664Z,3.79
2017-12-08T11:18:07.732Z,3.79
2017-12-08T11:19:16.603Z,3.81
2017-12-08T11:20:25.405Z,3.76
2017-12-08T11:21:33.936Z,3.69
2017-12-08T11:22:42.735Z,3.67
2017-12-08T11:23:51.533Z,3.63
2017-12-08T11:25:00.347Z,3.69
2017-12-08T11:26:08.883Z,3.57
2017-12-08T11:27:17.413Z,3.61
2017-12-08T11:28:25.945Z,3.56
2017-12-08T11:29:34.744Z,3.46
2017-12-08T11:30:43.811Z,3.42
2017-12-08T11:31:52.610Z,3.39
2017-12-08T11:33:01.140Z,3.35
2017-12-08T11:34:09.675Z,3.32
2017-12-08T11:35:18.209Z,3.29
2017-12-08T11:36:27.287Z,3.26
2017-12-08T11:37:35.829Z,3.21
2017-12-08T11:38:44.903Z,3.14
2017-12-08T11:39:53.706Z,3.11
2017-12-08T11:41:02.502Z,3.11
2017-12-08T11:42:11.304Z,3.11
2017-12-08T11:43:19.871Z,3.11
2017-12-08T11:44:28.421Z,3.09
2017-12-08T11:45:37.188Z,3.01
2017-12-08T11:46:46.254Z,3.08
2017-12-08T11:47:54.788Z,3.08
2017-12-08T11:49:03.593Z,3.06
2017-12-08T11:50:12.655Z,3.01
2017-12-08T11:51:21.456Z,2.98
2017-12-08T11:52:30.528Z,2.96
2017-12-08T11:53:39.060Z,2.96
2017-12-08T11:54:47.604Z,3.01
2017-12-08T11:55:56.439Z,2.96
2017-12-08T11:57:05.215Z,2.99
2017-12-08T11:58:13.746Z,2.98
2017-12-08T11:59:22.378Z,3.02
2017-12-08T12:00:31.177Z,3.01
2017-12-08T12:01:39.724Z,2.99
2017-12-08T12:02:48.522Z,2.99
2017-12-08T12:03:57.053Z,2.95
2017-12-08T12:05:06.119Z,2.99
2017-12-08T12:06:14.651Z,3.02
2017-12-08T12:07:23.183Z,2.95
2017-12-08T12:08:31.986Z,3.02
2017-12-08T12:09:40.783Z,2.99
2017-12-08T12:10:49.854Z,3.08
2017-12-08T12:11:58.654Z,3.06
2017-12-08T12:13:07.991Z,3.14
2017-12-08T12:14:16.555Z,3.17
2017-12-08T12:15:25.086Z,3.11
2017-12-08T12:16:33.617Z,3.19
2017-12-08T12:17:42.416Z,3.17
2017-12-08T12:18:51.216Z,3.14
2017-12-08T12:20:00.555Z,3.17
2017-12-08T12:21:09.357Z,3.16
2017-12-08T12:22:18.157Z,3.23
2017-12-08T12:23:26.689Z,3.19
2017-12-08T12:24:35.519Z,3.19
2017-12-08T12:25:44.698Z,3.21
2017-12-08T12:26:53.502Z,3.2
2017-12-08T12:28:02.313Z,3.27
2017-12-08T12:29:11.653Z,3.23
2017-12-08T12:30:20.204Z,3.19
2017-12-08T12:31:29.034Z,3.19
2017-12-08T12:32:37.591Z,3.2
2017-12-08T12:33:46.151Z,3.16
2017-12-08T12:34:54.960Z,3.09
2017-12-08T12:36:03.775Z,3.17
2017-12-08T12:37:12.323Z,3.13
2017-12-08T12:38:21.767Z,3.14
2017-12-08T12:39:30.333Z,3.14
2017-12-08T12:40:38.877Z,3.13
2017-12-08T12:41:47.420Z,3.14
2017-12-08T12:42:55.961Z,3.11
2017-12-08T12:44:05.035Z,3.08
2017-12-08T12:45:13.585Z,3.02
2017-12-08T12:46:22.778Z,2.95
2017-12-08T12:47:31.587Z,2.96
2017-12-08T12:48:40.139Z,3.02
2017-12-08T12:49:49.922Z,2.91
2017-12-08T12:50:59.960Z,2.95
2017-12-08T12:52:08.816Z,3.02
2017-12-08T12:53:21.786Z,3.03
2017-12-08T12:54:30.868Z,3.02
2017-12-08T12:55:39.755Z,2.95
2017-12-08T12:56:48.564Z,2.95
2017-12-08T12:57:58.179Z,2.96
2017-12-08T12:59:06.745Z,2.98
2017-12-08T13:00:15.540Z,2.99
2017-12-08T13:01:24.074Z,2.91
2017-12-08T13:02:33.668Z,2.85
2017-12-08T13:03:42.517Z,2.87
2017-12-08T13:04:51.307Z,2.85
2017-12-08T13:06:00.410Z,2.87
2017-12-08T13:07:08.975Z,2.88
2017-12-08T13:08:17.508Z,2.9
2017-12-08T13:09:26.306Z,2.95
2017-12-08T13:10:34.872Z,2.91
2017-12-08T13:11:43.745Z,2.9
2017-12-08T13:12:52.511Z,2.88
2017-12-08T13:14:01.444Z,2.91
2017-12-08T13:15:10.112Z,2.91
2017-12-08T13:16:19.195Z,2.87
2017-12-08T13:17:27.764Z,2.93
2017-12-08T13:18:36.563Z,3.02
2017-12-08T13:19:45.361Z,2.98
2017-12-08T13:20:54.211Z,2.99
2017-12-08T13:22:03.301Z,3.03
2017-12-08T13:23:11.832Z,3.08
2017-12-08T13:24:20.896Z,3.11
2017-12-08T13:25:29.716Z,3.09
2017-12-08T13:26:38.514Z,3.16
2017-12-08T13:27:47.310Z,3.21
2017-12-08T13:28:55.842Z,3.21
2017-12-08T13:30:04.649Z,3.21
2017-12-08T13:31:14.014Z,3.26
2017-12-08T13:32:22.840Z,3.29
2017-12-08T13:33:31.904Z,3.34
2017-12-08T13:34:40.707Z,3.35
2017-12-08T13:35:50.039Z,3.42
2017-12-08T13:36:59.123Z,3.43
2017-12-08T13:38:08.197Z,3.53
2017-12-08T13:39:17.033Z,3.45
2017-12-08T13:40:26.368Z,3.6
2017-12-08T13:41:35.167Z,3.57
2017-12-08T13:42:43.967Z,3.71
2017-12-08T13:43:52.500Z,3.66
2017-12-08T13:45:01.315Z,3.72
2017-12-08T13:46:10.403Z,3.78
2017-12-08T13:47:18.938Z,3.74
2017-12-08T13:48:28.044Z,3.86
2017-12-08T13:49:36.848Z,3.89
2017-12-08T13:50:45.915Z,3.9
2017-12-08T13:51:54.989Z,3.9
2017-12-08T13:53:03.836Z,3.84
2017-12-08T13:54:13.079Z,3.82
2017-12-08T13:55:21.781Z,3.94
2017-12-08T13:56:30.613Z,4
2017-12-08T13:57:39.845Z,3.86
2017-12-08T13:58:48.534Z,3.96
2017-12-08T13:59:57.343Z,3.89
2017-12-08T14:01:06.287Z,3.93
2017-12-08T14:02:15.413Z,3.97
2017-12-08T14:03:24.587Z,3.93
2017-12-08T14:04:33.254Z,3.89
2017-12-08T14:05:41.852Z,3.86
2017-12-08T14:06:50.958Z,3.96
2017-12-08T14:07:59.816Z,3.86
2017-12-08T14:09:08.898Z,3.85
2017-12-08T14:10:17.972Z,3.89
2017-12-08T14:11:26.769Z,3.79
2017-12-08T14:12:35.838Z,3.82
2017-12-08T14:13:44.905Z,3.82
2017-12-08T14:14:53.440Z,3.78
2017-12-08T14:16:02.243Z,3.66
2017-12-08T14:17:11.404Z,3.56
2017-12-08T14:18:19.945Z,3.39
2017-12-08T14:19:28.750Z,3.43
2017-12-08T14:20:37.555Z,3.35
2017-12-08T14:21:46.088Z,3.29
2017-12-08T14:22:55.174Z,3.17
2017-12-08T14:24:03.975Z,3.17
2017-12-08T14:25:12.822Z,2.99
2017-12-08T14:26:21.352Z,3.01
2017-12-08T14:27:30.429Z,2.99
2017-12-08T14:28:39.939Z,3.01
2017-12-08T14:29:48.741Z,3.01
2017-12-08T14:30:57.292Z,2.96
2017-12-08T14:32:05.818Z,3.11
2017-12-08T14:33:14.360Z,3.08
2017-12-08T14:34:23.162Z,3.03
2017-12-08T14:35:31.693Z,3.16
2017-12-08T14:36:40.782Z,3.16
2017-12-08T14:37:49.599Z,3.13
2017-12-08T14:38:58.135Z,3.11
2017-12-08T14:40:07.219Z,3.17
2017-12-08T14:41:16.838Z,3.23
2017-12-08T14:42:25.377Z,3.27
2017-12-08T14:43:33.910Z,3.26
2017-12-08T14:44:42.444Z,3.32
2017-12-08T14:45:51.517Z,3.3
2017-12-08T14:47:00.057Z,3.29
2017-12-08T14:48:11.466Z,3.34
2017-12-08T14:49:20.008Z,3.29
2017-12-08T14:50:28.815Z,3.34
2017-12-08T14:51:37.384Z,3.3
2017-12-08T14:52:45.917Z,3.34
2017-12-08T14:53:54.713Z,3.4
2017-12-08T14:55:03.510Z,3.3
2017-12-08T14:56:12.049Z,3.32
2017-12-08T14:57:20.868Z,3.34
2017-12-08T14:58:29.678Z,3.34
2017-12-08T14:59:38.479Z,3.37
2017-12-08T15:00:47.296Z,3.35
2017-12-08T15:01:55.837Z,3.34
2017-12-08T15:03:05.174Z,3.3
2017-12-08T15:04:13.713Z,3.32
2017-12-08T15:05:22.510Z,3.3
2017-12-08T15:06:31.069Z,3.2
2017-12-08T15:07:40.152Z,3.23
2017-12-08T15:08:48.686Z,3.2
2017-12-08T15:09:57.218Z,3.21
2017-12-08T15:11:06.291Z,3.17
2017-12-08T15:12:14.876Z,3.24
2017-12-08T15:13:23.409Z,3.17
2017-12-08T15:14:31.951Z,3.11
2017-12-08T15:15:40.486Z,3.17
2017-12-08T15:16:49.558Z,3.17
2017-12-08T15:17:58.090Z,3.11
2017-12-08T15:19:06.634Z,3.11
2017-12-08T15:20:15.448Z,3.11
2017-12-08T15:21:25.047Z,3.09
2017-12-08T15:22:33.847Z,3.17
2017-12-08T15:23:42.383Z,3.16
2017-12-08T15:24:51.451Z,3.11